Station Historical Data
Daily Summary for January 5, 2012 Units:  Metric    English   Both
« Previous Day
Next Day »
Daily Weekly Monthly Yearly Custom
  High: Low: Average:
Temperature: 14.8 °C -0.2 °C 6.8 °C
Dew Point: 3.6 °C -0.8 °C 0.9 °C
Humidity: 97% 37% 70%
Wind Speed: 12.9km/h 0km/h 2.6km/h
Wind Gust: 14.5km/h - -
Wind- - SSW
Pressure: 1025.3 hPa 1019.2 hPa -
Precipitation: 0 mm    
Historical Graphs
 
 
Tabular Data for January 5, 2012
Time Temperature Dew Point Pressure Wind Wind Speed Wind Gust Humidity Rainfall Rate (Hourly) Conditions
00:00 4.2 °C 1.7 °C 1023.2 hPa WSW 1.6 km/h 3.2 km/h 84% 0 mm
00:01 4.2 °C 1.9 °C 1023.2 hPa WSW 1.6 km/h 3.2 km/h 85% 0 mm
00:06 4.2 °C 1.9 °C 1023.2 hPa WSW 1.6 km/h 3.2 km/h 85% 0 mm
00:11 4.1 °C 1.7 °C 1023.2 hPa WSW 1.6 km/h 1.6 km/h 84% 0 mm
00:16 4.1 °C 1.8 °C 1023.2 hPa West 1.6 km/h 3.2 km/h 85% 0 mm
00:21 4 °C 1.7 °C 1023.2 hPa WSW 3.2 km/h 4.8 km/h 85% 0 mm
00:26 4 °C 1.7 °C 1023.2 hPa Calm   3.2 km/h 85% 0 mm
00:31 3.9 °C 1.7 °C 1023.2 hPa WSW 3.2 km/h 4.8 km/h 85% 0 mm
00:36 3.9 °C 1.6 °C 1023.2 hPa West 1.6 km/h 3.2 km/h 85% 0 mm
00:41 3.8 °C 1.6 °C 1023.2 hPa West 3.2 km/h 4.8 km/h 85% 0 mm
00:46 3.8 °C 1.7 °C 1023.2 hPa WSW 4.8 km/h 6.4 km/h 86% 0 mm
00:51 3.9 °C 1.8 °C 1023.2 hPa WSW 1.6 km/h 3.2 km/h 86% 0 mm
00:56 3.9 °C 1.8 °C 1023.6 hPa WNW 1.6 km/h 1.6 km/h 86% 0 mm
01:01 3.9 °C 1.8 °C 1023.2 hPa Calm   1.6 km/h 86% 0 mm
01:06 3.9 °C 1.8 °C 1023.2 hPa Calm   1.6 km/h 86% 0 mm
01:11 3.9 °C 1.8 °C 1023.2 hPa Calm     86% 0 mm
01:16 3.9 °C 1.8 °C 1023.2 hPa Calm     86% 0 mm
01:21 3.8 °C 1.7 °C 1023.2 hPa Calm     86% 0 mm
01:26 3.8 °C 1.8 °C 1023.2 hPa Calm   1.6 km/h 87% 0 mm
01:31 3.8 °C 1.8 °C 1023.2 hPa Calm     87% 0 mm
01:36 3.7 °C 1.8 °C 1022.9 hPa Calm     87% 0 mm
01:41 3.6 °C 1.7 °C 1022.9 hPa Calm     87% 0 mm
01:46 3.6 °C 1.8 °C 1022.9 hPa Calm     88% 0 mm
01:51 3.6 °C 1.8 °C 1022.9 hPa Calm     88% 0 mm
01:56 3.5 °C 1.7 °C 1022.9 hPa Calm     88% 0 mm
02:01 3.6 °C 1.8 °C 1022.9 hPa SW 1.6 km/h 1.6 km/h 88% 0 mm
02:06 3.4 °C 1.6 °C 1022.6 hPa Calm   1.6 km/h 88% 0 mm
02:11 3.1 °C 1.3 °C 1022.6 hPa SSW 1.6 km/h 3.2 km/h 88% 0 mm
02:16 2.9 °C 1.3 °C 1022.6 hPa SSW 1.6 km/h 3.2 km/h 89% 0 mm
02:21 2.8 °C 1.2 °C 1022.6 hPa SW 1.6 km/h 3.2 km/h 89% 0 mm
02:26 2.8 °C 1.3 °C 1022.6 hPa Calm   3.2 km/h 90% 0 mm
02:31 2.8 °C 1.3 °C 1022.6 hPa SW 3.2 km/h 4.8 km/h 90% 0 mm
02:36 2.9 °C 1.3 °C 1022.6 hPa WSW 3.2 km/h 3.2 km/h 89% 0 mm
02:41 2.9 °C 1.4 °C 1022.6 hPa WSW 3.2 km/h 4.8 km/h 90% 0 mm
02:46 2.9 °C 1.3 °C 1022.6 hPa WSW 3.2 km/h 3.2 km/h 89% 0 mm
02:51 2.9 °C 1.3 °C 1022.6 hPa WSW 3.2 km/h 3.2 km/h 89% 0 mm
02:56 2.9 °C 1.3 °C 1022.6 hPa WSW 3.2 km/h 3.2 km/h 89% 0 mm
03:01 2.9 °C 1.3 °C 1022.6 hPa WSW 1.6 km/h 3.2 km/h 89% 0 mm
03:06 2.8 °C 1.3 °C 1022.6 hPa Calm   3.2 km/h 90% 0 mm
03:11 2.7 °C 1.2 °C 1022.6 hPa Calm   1.6 km/h 90% 0 mm
03:16 2.6 °C 1.1 °C 1022.6 hPa WSW 1.6 km/h 1.6 km/h 90% 0 mm
03:21 2.4 °C 1.1 °C 1022.6 hPa Calm     91% 0 mm
03:26 2.4 °C 1.3 °C 1022.6 hPa Calm   1.6 km/h 92% 0 mm
03:32 2.5 °C 1.3 °C 1022.6 hPa Calm   1.6 km/h 92% 0 mm
03:37 2.4 °C 1.3 °C 1022.2 hPa SW 3.2 km/h 3.2 km/h 92% 0 mm
03:42 2.4 °C 1.1 °C 1022.2 hPa WSW 1.6 km/h 3.2 km/h 91% 0 mm
03:47 2.3 °C 0.9 °C 1022.2 hPa Calm   1.6 km/h 91% 0 mm
03:52 2.1 °C 0.9 °C 1022.2 hPa Calm   1.6 km/h 92% 0 mm
03:57 1.9 °C 0.8 °C 1022.2 hPa Calm     92% 0 mm
04:02 1.9 °C 0.9 °C 1022.2 hPa Calm     93% 0 mm
04:07 2.1 °C 1.2 °C 1022.2 hPa Calm     94% 0 mm
04:12 2.2 °C 1.2 °C 1022.2 hPa Calm     93% 0 mm
04:17 2.3 °C 1.3 °C 1022.2 hPa Calm     93% 0 mm
04:22 2.4 °C 1.4 °C 1022.2 hPa Calm     93% 0 mm
04:27 2.3 °C 1.3 °C 1022.2 hPa Calm     93% 0 mm
04:32 2.2 °C 1.2 °C 1022.2 hPa Calm     93% 0 mm
04:37 2.2 °C 1.2 °C 1022.2 hPa Calm     93% 0 mm
04:42 2.3 °C 1.3 °C 1022.2 hPa Calm     93% 0 mm
04:47 2.2 °C 1.2 °C 1022.2 hPa Calm     93% 0 mm
04:52 1.9 °C 0.9 °C 1022.2 hPa Calm     93% 0 mm
04:57 1.7 °C 0.7 °C 1022.2 hPa Calm     93% 0 mm
05:03 1.6 °C 0.6 °C 1022.6 hPa Calm     93% 0 mm
05:08 1.6 °C 0.7 °C 1022.6 hPa Calm     94% 0 mm
05:13 1.6 °C 0.7 °C 1022.6 hPa Calm     94% 0 mm
05:18 1.6 °C 0.7 °C 1022.6 hPa Calm     94% 0 mm
05:23 1.5 °C 0.7 °C 1022.6 hPa Calm     94% 0 mm
05:28 1.4 °C 0.6 °C 1022.6 hPa Calm     94% 0 mm
05:33 1.1 °C 0.3 °C 1022.6 hPa Calm     94% 0 mm
05:38 0.8 °C 0 °C 1022.6 hPa Calm     94% 0 mm
05:43 0.9 °C 0.2 °C 1022.6 hPa Calm     95% 0 mm
05:48 0.7 °C 0 °C 1022.2 hPa Calm     95% 0 mm
05:53 0.8 °C 0.1 °C 1022.2 hPa Calm     95% 0 mm
05:58 0.8 °C 0.1 °C 1022.6 hPa Calm     95% 0 mm
06:03 0.9 °C 0.3 °C 1022.6 hPa Calm     96% 0 mm
06:08 0.9 °C 0.3 °C 1022.6 hPa Calm     96% 0 mm
06:13 0.7 °C -0.1 °C 1022.6 hPa Calm     95% 0 mm
06:18 0.3 °C -0.4 °C 1022.6 hPa Calm     95% 0 mm
06:23 -0.1 °C -0.8 °C 1022.6 hPa Calm     95% 0 mm
06:28 0.3 °C -0.3 °C 1022.6 hPa Calm     96% 0 mm
06:33 0.4 °C -0.2 °C 1022.6 hPa Calm     96% 0 mm
06:38 0.2 °C -0.3 °C 1022.6 hPa Calm     96% 0 mm
06:43 0.4 °C -0.2 °C 1022.6 hPa Calm     96% 0 mm
06:48 0.3 °C -0.3 °C 1022.6 hPa Calm     96% 0 mm
06:53 0.3 °C -0.2 °C 1022.6 hPa Calm     96% 0 mm
06:58 0.3 °C -0.2 °C 1022.9 hPa Calm     96% 0 mm
07:03 0.2 °C -0.3 °C 1022.9 hPa Calm     96% 0 mm
07:08 0.2 °C -0.3 °C 1022.9 hPa Calm     96% 0 mm
07:13 0.2 °C -0.3 °C 1022.9 hPa Calm     96% 0 mm
07:18 0.1 °C -0.5 °C 1022.9 hPa Calm     96% 0 mm
07:23 -0.1 °C -0.7 °C 1022.9 hPa Calm     96% 0 mm
07:28 -0.2 °C -0.7 °C 1022.9 hPa Calm     96% 0 mm
07:33 0.1 °C -0.5 °C 1023.2 hPa Calm     96% 0 mm
07:38 0 °C -0.6 °C 1023.2 hPa Calm     96% 0 mm
07:43 0.2 °C -0.4 °C 1023.2 hPa Calm     96% 0 mm
07:48 0.3 °C -0.1 °C 1023.2 hPa Calm     97% 0 mm
07:53 0.5 °C 0.1 °C 1023.2 hPa Calm     97% 0 mm
07:58 0.4 °C -0.1 °C 1023.2 hPa Calm     97% 0 mm
08:03 0.2 °C -0.4 °C 1023.2 hPa Calm     96% 0 mm
08:08 0.2 °C -0.4 °C 1023.2 hPa Calm     96% 0 mm
08:13 0.3 °C -0.2 °C 1023.2 hPa Calm     97% 0 mm
08:18 0.3 °C -0.2 °C 1023.6 hPa Calm     97% 0 mm
08:23 0.3 °C -0.1 °C 1023.6 hPa Calm     97% 0 mm
08:28 0.3 °C -0.3 °C 1023.6 hPa Calm     96% 0 mm
08:33 0.2 °C -0.3 °C 1023.6 hPa Calm     96% 0 mm
08:39 0.4 °C -0.2 °C 1023.9 hPa Calm     96% 0 mm
08:44 0.2 °C -0.4 °C 1023.9 hPa Calm     96% 0 mm
08:49 0.2 °C -0.3 °C 1023.9 hPa North 1.6 km/h 3.2 km/h 96% 0 mm
08:54 0.6 °C 0 °C 1024.3 hPa North 3.2 km/h 3.2 km/h 96% 0 mm
08:59 1.1 °C 0.6 °C 1024.3 hPa North 1.6 km/h 3.2 km/h 97% 0 mm
09:04 1.4 °C 1 °C 1024.3 hPa North 1.6 km/h 3.2 km/h 97% 0 mm
09:09 1.8 °C 1.3 °C 1024.3 hPa Calm   1.6 km/h 97% 0 mm
09:14 2.2 °C 1.8 °C 1024.3 hPa Calm   1.6 km/h 97% 0 mm
09:19 2.6 °C 2.2 °C 1024.6 hPa Calm   1.6 km/h 97% 0 mm
09:24 2.9 °C 2.4 °C 1024.6 hPa NNW 1.6 km/h 3.2 km/h 97% 0 mm
09:29 3.2 °C 2.6 °C 1024.6 hPa NNW 3.2 km/h 3.2 km/h 96% 0 mm
09:34 3.6 °C 3 °C 1024.6 hPa NNW 1.6 km/h 3.2 km/h 96% 0 mm
09:39 4 °C 3.4 °C 1024.6 hPa NNW 4.8 km/h 4.8 km/h 96% 0 mm
09:44 4.4 °C 3.3 °C 1024.6 hPa NNE 4.8 km/h 6.4 km/h 93% 0 mm
09:49 4.8 °C 3.3 °C 1024.9 hPa North 4.8 km/h 8 km/h 90% 0 mm
09:54 5.2 °C 3.6 °C 1024.9 hPa North 3.2 km/h 6.4 km/h 89% 0 mm
09:59 5.5 °C 3.5 °C 1024.9 hPa NW 3.2 km/h 8 km/h 87% 0 mm
10:04 5.8 °C 3.2 °C 1024.9 hPa NNW 6.4 km/h 8 km/h 83% 0 mm
10:09 6 °C 3 °C 1024.9 hPa NNW 6.4 km/h 8 km/h 81% 0 mm
10:14 6.3 °C 3.3 °C 1024.9 hPa NNW 4.8 km/h 6.4 km/h 81% 0 mm
10:19 6.6 °C 3.1 °C 1024.9 hPa NNE 4.8 km/h 4.8 km/h 78% 0 mm
10:24 6.9 °C 3.3 °C 1024.9 hPa NNE 4.8 km/h 6.4 km/h 78% 0 mm
10:29 6.9 °C 2.6 °C 1025.3 hPa NE 6.4 km/h 8 km/h 74% 0 mm
10:34 6.9 °C 2.4 °C 1025.3 hPa NNE 3.2 km/h 6.4 km/h 73% 0 mm
10:39 7.2 °C 2.8 °C 1025.3 hPa NE 3.2 km/h 4.8 km/h 74% 0 mm
10:44 7.5 °C 3.3 °C 1025.3 hPa East 3.2 km/h 4.8 km/h 75% 0 mm
10:49 7.7 °C 2.8 °C 1025.3 hPa NNE 3.2 km/h 6.4 km/h 71% 0 mm
10:54 7.8 °C 2.9 °C 1025.3 hPa NE 3.2 km/h 3.2 km/h 71% 0 mm
10:59 8 °C 2.9 °C 1025.3 hPa East 4.8 km/h 6.4 km/h 70% 0 mm
11:04 8.2 °C 2.8 °C 1025.3 hPa ESE 4.8 km/h 4.8 km/h 69% 0 mm
11:09 8.3 °C 2.3 °C 1025.3 hPa Calm   3.2 km/h 66% 0 mm
11:14 8.8 °C 2.6 °C 1024.9 hPa North 3.2 km/h 4.8 km/h 65% 0 mm
11:19 8.9 °C 2.7 °C 1024.9 hPa East 3.2 km/h 6.4 km/h 65% 0 mm
11:25 9.1 °C 3.1 °C 1024.9 hPa North 4.8 km/h 4.8 km/h 66% 0 mm
11:30 9.4 °C 2.6 °C 1024.9 hPa North 1.6 km/h 4.8 km/h 62% 0 mm
11:35 9.5 °C 2.6 °C 1024.9 hPa NW 1.6 km/h 6.4 km/h 62% 0 mm
11:40 9.5 °C 2.6 °C 1024.6 hPa WNW 4.8 km/h 4.8 km/h 62% 0 mm
11:45 9.7 °C 2.7 °C 1024.6 hPa NW 1.6 km/h 3.2 km/h 62% 0 mm
11:50 9.8 °C 2.7 °C 1024.6 hPa NW 1.6 km/h 4.8 km/h 61% 0 mm
11:55 10 °C 2.6 °C 1024.3 hPa NW 3.2 km/h 4.8 km/h 60% 0 mm
11:56 10 °C 2.6 °C 1024.3 hPa NW 1.6 km/h 4.8 km/h 60% 0 mm
12:01 10.2 °C 2.8 °C 1024.3 hPa WNW 3.2 km/h 4.8 km/h 60% 0 mm
12:06 10.1 °C 2.2 °C 1024.3 hPa NW 1.6 km/h 3.2 km/h 58% 0 mm
12:11 10.5 °C 2.8 °C 1024.3 hPa Calm   3.2 km/h 59% 0 mm
12:16 10.8 °C 2.8 °C 1023.9 hPa WSW 4.8 km/h 4.8 km/h 58% 0 mm
12:21 10.8 °C 2.9 °C 1023.9 hPa Calm   3.2 km/h 58% 0 mm
12:26 11.3 °C 2.4 °C 1023.6 hPa Calm   6.4 km/h 54% 0 mm
12:31 11.4 °C 2.2 °C 1023.6 hPa West 4.8 km/h 8 km/h 53% 0 mm
12:36 11.2 °C 1.4 °C 1023.6 hPa West 4.8 km/h 8 km/h 51% 0 mm
12:41 11.3 °C 1.8 °C 1023.2 hPa NNW 4.8 km/h 6.4 km/h 52% 0 mm
12:46 11.4 °C 1.9 °C 1023.2 hPa Calm   8 km/h 52% 0 mm
12:51 11.8 °C 2.5 °C 1023.2 hPa SW 1.6 km/h 1.6 km/h 53% 0 mm
12:56 12.1 °C 2.8 °C 1023.2 hPa SW 4.8 km/h 4.8 km/h 53% 0 mm
13:01 12.2 °C 2.3 °C 1022.9 hPa SE 1.6 km/h 6.4 km/h 51% 0 mm
13:06 12.3 °C 2.2 °C 1022.9 hPa SE 3.2 km/h 4.8 km/h 50% 0 mm
13:11 12.3 °C 1.9 °C 1022.6 hPa WSW 1.6 km/h 6.4 km/h 49% 0 mm
13:16 12.2 °C 1.2 °C 1022.6 hPa Calm   6.4 km/h 47% 0 mm
13:21 12.4 °C 2 °C 1022.6 hPa SSW 3.2 km/h 8 km/h 49% 0 mm
13:26 12.4 °C 1.4 °C 1022.2 hPa NE 3.2 km/h 4.8 km/h 47% 0 mm
13:31 12.2 °C 1.8 °C 1022.2 hPa ESE 3.2 km/h 4.8 km/h 49% 0 mm
13:36 12.5 °C 1.2 °C 1022.2 hPa West 4.8 km/h 6.4 km/h 46% 0 mm
13:41 12.7 °C 0.7 °C 1021.9 hPa WNW 1.6 km/h 6.4 km/h 44% 0 mm
13:46 12.7 °C 0.4 °C 1021.9 hPa SW 4.8 km/h 12.9 km/h 43% 0 mm
13:51 12.9 °C 0.3 °C 1021.9 hPa SSE 4.8 km/h 9.7 km/h 42% 0 mm
13:56 13.1 °C 0.4 °C 1021.6 hPa SSW 3.2 km/h 8 km/h 42% 0 mm
14:01 13.2 °C 0.2 °C 1021.6 hPa SW 4.8 km/h 6.4 km/h 41% 0 mm
14:06 13.3 °C 0 °C 1021.2 hPa SSW 4.8 km/h 9.7 km/h 40% 0 mm
14:11 13.2 °C -0.1 °C 1021.2 hPa WSW 1.6 km/h 6.4 km/h 40% 0 mm
14:16 13.3 °C -0.7 °C 1021.2 hPa ENE 1.6 km/h 6.4 km/h 38% 0 mm
14:21 13.3 °C -0.4 °C 1021.2 hPa SW 4.8 km/h 8 km/h 39% 0 mm
14:26 13.5 °C -0.6 °C 1021.2 hPa SW 1.6 km/h 6.4 km/h 38% 0 mm
14:32 13.7 °C -0.3 °C 1021.2 hPa WSW 6.4 km/h 8 km/h 38% 0 mm
14:37 13.8 °C 0.1 °C 1020.9 hPa WNW 3.2 km/h 4.8 km/h 39% 0 mm
14:42 13.9 °C 0.5 °C 1020.9 hPa South 3.2 km/h 8 km/h 40% 0 mm
14:47 14.2 °C 0.4 °C 1020.9 hPa SW 8 km/h 9.7 km/h 39% 0 mm
14:52 14.1 °C -0.4 °C 1020.9 hPa WNW 4.8 km/h 4.8 km/h 37% 0 mm
14:57 14.1 °C -0.1 °C 1020.9 hPa WSW 4.8 km/h 6.4 km/h 38% 0 mm
15:02 13.9 °C -0.1 °C 1020.9 hPa West 6.4 km/h 8 km/h 38% 0 mm
15:07 14.1 °C 0.3 °C 1020.9 hPa SSW 4.8 km/h 6.4 km/h 39% 0 mm
15:12 14.1 °C 0.3 °C 1020.5 hPa SSE 3.2 km/h 8 km/h 39% 0 mm
15:17 14.1 °C 0.7 °C 1020.9 hPa SSW 6.4 km/h 9.7 km/h 40% 0 mm
15:22 14 °C 0.3 °C 1020.9 hPa SW 8 km/h 12.9 km/h 39% 0 mm
15:27 14.1 °C 0 °C 1020.5 hPa SW 4.8 km/h 8 km/h 38% 0 mm
15:32 14.2 °C 0.1 °C 1020.5 hPa WSW 4.8 km/h 9.7 km/h 38% 0 mm
15:37 14.2 °C 0.1 °C 1020.5 hPa West 1.6 km/h 8 km/h 38% 0 mm
15:42 14.4 °C 0.3 °C 1020.5 hPa South 4.8 km/h 9.7 km/h 38% 0 mm
15:47 14.6 °C 0.1 °C 1020.5 hPa WSW 8 km/h 8 km/h 37% 0 mm
15:53 14.6 °C 0.1 °C 1020.5 hPa WSW 4.8 km/h 8 km/h 37% 0 mm
15:58 14.7 °C 0.2 °C 1020.5 hPa WSW 3.2 km/h 4.8 km/h 37% 0 mm
16:03 14.8 °C 0.2 °C 1020.5 hPa SSE 4.8 km/h 6.4 km/h 37% 0 mm
16:08 14.8 °C 0.7 °C 1020.5 hPa SSE 3.2 km/h 6.4 km/h 38% 0 mm
16:13 14.7 °C 0.6 °C 1020.5 hPa SSW 1.6 km/h 8 km/h 38% 0 mm
16:18 14.8 °C 0.2 °C 1020.5 hPa SW 6.4 km/h 9.7 km/h 37% 0 mm
16:23 14.8 °C 0.9 °C 1020.5 hPa South 3.2 km/h 9.7 km/h 39% 0 mm
16:28 14.7 °C 0.9 °C 1020.5 hPa South 6.4 km/h 11.3 km/h 39% 0 mm
16:33 14.7 °C 1.2 °C 1020.5 hPa SW 6.4 km/h 8 km/h 40% 0 mm
16:38 14.6 °C 0.8 °C 1020.5 hPa SSE 8 km/h 11.3 km/h 39% 0 mm
16:43 14.5 °C 0.7 °C 1020.5 hPa South 12.9 km/h 12.9 km/h 39% 0 mm
16:48 14.3 °C 0.9 °C 1020.2 hPa South 8 km/h 12.9 km/h 40% 0 mm
16:53 14.2 °C 0.4 °C 1020.2 hPa South 6.4 km/h 9.7 km/h 39% 0 mm
16:58 14 °C 1.9 °C 1020.2 hPa South 6.4 km/h 12.9 km/h 44% 0 mm
17:03 13.8 °C 2.7 °C 1020.2 hPa South 4.8 km/h 11.3 km/h 47% 0 mm
17:08 13.4 °C 2.4 °C 1020.2 hPa SSE 6.4 km/h 12.9 km/h 47% 0 mm
17:13 13.2 °C 2.1 °C 1020.2 hPa SW 6.4 km/h 14.5 km/h 47% 0 mm
17:18 12.9 °C 1.9 °C 1020.2 hPa SSE 8 km/h 11.3 km/h 47% 0 mm
17:23 12.8 °C 2.1 °C 1020.2 hPa South 6.4 km/h 11.3 km/h 48% 0 mm
17:28 12.6 °C 1.9 °C 1020.2 hPa SW 9.7 km/h 9.7 km/h 48% 0 mm
17:33 12.5 °C 1.8 °C 1020.2 hPa SSW 6.4 km/h 11.3 km/h 48% 0 mm
17:38 12.2 °C 1.6 °C 1020.2 hPa South 4.8 km/h 9.7 km/h 48% 0 mm
17:43 11.7 °C 1.3 °C 1019.9 hPa South 4.8 km/h 8 km/h 49% 0 mm
17:48 11.2 °C 1.4 °C 1019.9 hPa South 6.4 km/h 6.4 km/h 51% 0 mm
17:53 10.7 °C 1 °C 1019.9 hPa SSE 3.2 km/h 6.4 km/h 51% 0 mm
17:58 10.6 °C 0.8 °C 1019.9 hPa South 6.4 km/h 11.3 km/h 51% 0 mm
18:03 10.4 °C 0.7 °C 1019.9 hPa South 4.8 km/h 8 km/h 51% 0 mm
18:08 10.2 °C 0.8 °C 1019.9 hPa SSE 3.2 km/h 4.8 km/h 52% 0 mm
18:13 10 °C 0.6 °C 1019.9 hPa SSE 4.8 km/h 4.8 km/h 52% 0 mm
18:18 9.8 °C 0.4 °C 1019.9 hPa SSE 3.2 km/h 4.8 km/h 52% 0 mm
18:23 9.7 °C 0.6 °C 1020.2 hPa SSE 3.2 km/h 4.8 km/h 53% 0 mm
18:28 9.5 °C 0.4 °C 1020.2 hPa SSE 3.2 km/h 4.8 km/h 53% 0 mm
18:33 9.4 °C 0.3 °C 1020.2 hPa SSE 3.2 km/h 3.2 km/h 53% 0 mm
18:38 9.2 °C 0.4 °C 1020.2 hPa SSE 1.6 km/h 3.2 km/h 54% 0 mm
18:43 9.1 °C 0.2 °C 1020.2 hPa SSE 1.6 km/h 1.6 km/h 54% 0 mm
18:48 9 °C 0.4 °C 1020.2 hPa SSE 1.6 km/h 1.6 km/h 55% 0 mm
18:53 8.9 °C 0.4 °C 1020.2 hPa SSE 1.6 km/h 3.2 km/h 55% 0 mm
18:58 9.1 °C 0.5 °C 1020.2 hPa SSE 1.6 km/h 3.2 km/h 55% 0 mm
19:03 9 °C 0.4 °C 1020.2 hPa SSE 3.2 km/h 3.2 km/h 55% 0 mm
19:08 8.8 °C 0.3 °C 1020.2 hPa SSE 1.6 km/h 3.2 km/h 55% 0 mm
19:13 8.8 °C 0.2 °C 1020.2 hPa SSE 1.6 km/h 1.6 km/h 55% 0 mm
19:18 8.7 °C 0.4 °C 1020.2 hPa SSE 1.6 km/h 1.6 km/h 56% 0 mm
19:24 8.6 °C 0.3 °C 1020.2 hPa SSE 3.2 km/h 3.2 km/h 56% 0 mm
19:29 8.6 °C 0.3 °C 1020.2 hPa SE 3.2 km/h 3.2 km/h 56% 0 mm
19:34 8.6 °C 0.3 °C 1020.2 hPa SE 1.6 km/h 3.2 km/h 56% 0 mm
19:39 8.4 °C 0.1 °C 1020.2 hPa SE 1.6 km/h 1.6 km/h 56% 0 mm
19:44 8.4 °C 0.2 °C 1020.2 hPa SSE 3.2 km/h 3.2 km/h 56% 0 mm
19:49 8.6 °C 0.3 °C 1020.2 hPa SSE 3.2 km/h 3.2 km/h 56% 0 mm
19:54 8.6 °C 0.1 °C 1020.2 hPa SSE 3.2 km/h 4.8 km/h 55% 0 mm
19:59 8.7 °C 0.2 °C 1020.2 hPa SSE 1.6 km/h 3.2 km/h 55% 0 mm
20:04 8.7 °C -0.1 °C 1020.2 hPa SSW 1.6 km/h 3.2 km/h 54% 0 mm
20:09 8.6 °C -0.2 °C 1020.2 hPa South 3.2 km/h 3.2 km/h 54% 0 mm
20:14 8.4 °C -0.3 °C 1020.2 hPa SSW 3.2 km/h 3.2 km/h 54% 0 mm
20:19 8.4 °C -0.3 °C 1020.2 hPa SSW 1.6 km/h 3.2 km/h 54% 0 mm
20:24 8.4 °C -0.4 °C 1020.2 hPa South 3.2 km/h 4.8 km/h 54% 0 mm
20:29 8.4 °C -0.6 °C 1020.2 hPa South 3.2 km/h 6.4 km/h 53% 0 mm
20:34 8.4 °C -0.6 °C 1020.2 hPa South 3.2 km/h 4.8 km/h 53% 0 mm
20:39 8.4 °C -0.6 °C 1020.2 hPa SSW 3.2 km/h 6.4 km/h 53% 0 mm
20:44 8.4 °C -0.6 °C 1020.2 hPa SSW 3.2 km/h 4.8 km/h 53% 0 mm
20:49 8.4 °C -0.6 °C 1020.2 hPa South 3.2 km/h 4.8 km/h 53% 0 mm
20:54 8.3 °C -0.5 °C 1020.2 hPa SSE 1.6 km/h 3.2 km/h 54% 0 mm
20:59 8.1 °C -0.6 °C 1020.2 hPa SSW 3.2 km/h 3.2 km/h 54% 0 mm
21:04 8 °C -0.5 °C 1020.2 hPa SSW 1.6 km/h 3.2 km/h 55% 0 mm
21:09 7.9 °C -0.6 °C 1020.2 hPa SSW 1.6 km/h 3.2 km/h 55% 0 mm
21:14 7.8 °C -0.7 °C 1020.2 hPa SSW 1.6 km/h 1.6 km/h 55% 0 mm
21:19 7.7 °C -0.6 °C 1020.2 hPa SSW 3.2 km/h 3.2 km/h 56% 0 mm
21:24 7.6 °C -0.4 °C 1020.2 hPa SW 3.2 km/h 3.2 km/h 57% 0 mm
21:29 7.6 °C -0.4 °C 1020.2 hPa SW 3.2 km/h 4.8 km/h 57% 0 mm
21:34 7.6 °C -0.4 °C 1020.2 hPa SW 3.2 km/h 4.8 km/h 57% 0 mm
21:39 7.6 °C -0.3 °C 1020.2 hPa SW 6.4 km/h 6.4 km/h 57% 0 mm
21:44 7.6 °C -0.4 °C 1020.2 hPa SW 4.8 km/h 6.4 km/h 57% 0 mm
21:49 7.5 °C -0.4 °C 1020.2 hPa SW 6.4 km/h 6.4 km/h 57% 0 mm
21:54 7.5 °C -0.2 °C 1020.2 hPa SW 4.8 km/h 6.4 km/h 58% 0 mm
21:59 7.6 °C -0.2 °C 1020.2 hPa SW 6.4 km/h 6.4 km/h 58% 0 mm
22:04 7.4 °C -0.3 °C 1020.2 hPa SW 4.8 km/h 6.4 km/h 58% 0 mm
22:09 7.2 °C -0.5 °C 1020.2 hPa SW 3.2 km/h 4.8 km/h 58% 0 mm
22:14 7.1 °C -0.3 °C 1020.2 hPa SSW 4.8 km/h 4.8 km/h 59% 0 mm
22:19 7 °C -0.4 °C 1020.2 hPa SW 3.2 km/h 4.8 km/h 59% 0 mm
22:24 6.9 °C -0.3 °C 1020.2 hPa SSW 3.2 km/h 4.8 km/h 60% 0 mm
22:29 6.8 °C -0.4 °C 1020.2 hPa SW 3.2 km/h 4.8 km/h 60% 0 mm
22:34 6.9 °C -0.3 °C 1020.2 hPa SW 3.2 km/h 6.4 km/h 60% 0 mm
22:39 6.8 °C -0.4 °C 1019.9 hPa SSW 4.8 km/h 4.8 km/h 60% 0 mm
22:44 6.8 °C -0.4 °C 1019.9 hPa SSW 4.8 km/h 6.4 km/h 60% 0 mm
22:49 6.7 °C -0.3 °C 1019.9 hPa SSW 4.8 km/h 6.4 km/h 61% 0 mm
22:55 6.6 °C -0.4 °C 1019.9 hPa SSW 3.2 km/h 4.8 km/h 61% 0 mm
23:00 6.5 °C -0.5 °C 1019.9 hPa SW 3.2 km/h 4.8 km/h 61% 0 mm
23:05 6.5 °C -0.3 °C 1019.9 hPa SW 3.2 km/h 6.4 km/h 62% 0 mm
23:10 6.3 °C -0.4 °C 1019.9 hPa SSW 3.2 km/h 3.2 km/h 62% 0 mm
23:15 6.2 °C -0.3 °C 1019.9 hPa SSW 3.2 km/h 4.8 km/h 63% 0 mm
23:20 6.2 °C -0.3 °C 1019.9 hPa SSW 3.2 km/h 4.8 km/h 63% 0 mm
23:25 6.2 °C -0.3 °C 1019.5 hPa SSW 4.8 km/h 6.4 km/h 63% 0 mm
23:30 6.2 °C -0.1 °C 1019.5 hPa SSW 4.8 km/h 6.4 km/h 64% 0 mm
23:35 6.3 °C 0 °C 1019.5 hPa SSW 3.2 km/h 6.4 km/h 64% 0 mm
23:40 6.4 °C -0.1 °C 1019.2 hPa South 4.8 km/h 6.4 km/h 63% 0 mm
23:45 6.6 °C -0.2 °C 1019.2 hPa SSW 3.2 km/h 6.4 km/h 62% 0 mm
23:50 6.7 °C -0.1 °C 1019.2 hPa SW 4.8 km/h 6.4 km/h 62% 0 mm
23:55 6.6 °C -0.2 °C 1019.2 hPa SSW 4.8 km/h 6.4 km/h 62% 0 mm
Compliments of Weather Underground